Time;durP1;ratioP1;P1;durP2;ratioP2;P2;SDS_P1;SDS_P2;PMS_P1;PMS_P2;Temp;Humidity;BMP_temperature;BMP_pressure;BME280_temperature;BME280_humidity;BME280_pressure;Samples;Min_cycle;Max_cycle;Signal;HPM_P1;HPM_P2
2022/05/22 00:00:42;;;;;;;0.95;0.13;;;23.90;99.90;;;;;;5044489;28;20088;-72
2022/05/22 00:03:10;;;;;;;1.13;0.63;;;24.30;99.90;;;;;;5040210;28;20124;-74
2022/05/22 00:05:37;;;;;;;0.73;0.20;;;24.90;99.90;;;;;;5037735;28;20076;-74
2022/05/22 00:08:05;;;;;;;1.20;0.20;;;25.10;99.90;;;;;;5030702;28;20059;-73
2022/05/22 00:10:32;;;;;;;0.38;0.17;;;25.20;99.80;;;;;;5043155;28;20029;-73
2022/05/22 00:13:00;;;;;;;2.00;0.32;;;25.60;99.70;;;;;;5034015;28;20587;-72
2022/05/22 00:15:27;;;;;;;1.33;0.40;;;25.90;98.80;;;;;;5043602;28;20029;-72
2022/05/22 00:17:55;;;;;;;0.40;0.13;;;25.70;98.40;;;;;;5050679;28;20074;-72
2022/05/22 00:20:22;;;;;;;1.45;0.30;;;25.70;99.10;;;;;;5049199;28;20438;-72
2022/05/22 00:22:49;;;;;;;0.13;0.10;;;26.20;97.50;;;;;;5042819;28;20037;-72
2022/05/22 00:25:17;;;;;;;1.33;0.17;;;25.90;97.50;;;;;;5049674;28;20028;-72
2022/05/22 00:27:44;;;;;;;0.98;0.10;;;26.40;97.80;;;;;;5050680;28;20052;-73
2022/05/22 00:30:13;;;;;;;1.73;0.20;;;25.90;98.00;;;;;;5037840;28;20028;-74
2022/05/22 00:32:42;;;;;;;0.50;0.20;;;25.20;98.50;;;;;;5032274;28;20029;-75
2022/05/22 00:35:10;;;;;;;0.25;0.10;;;24.90;99.20;;;;;;5037269;28;20437;-73
2022/05/22 00:37:37;;;;;;;0.77;0.30;;;24.70;99.20;;;;;;5032370;28;20017;-73
2022/05/22 00:40:05;;;;;;;0.73;0.10;;;24.30;99.60;;;;;;5038737;28;20029;-75
2022/05/22 00:42:32;;;;;;;2.85;0.20;;;23.70;99.90;;;;;;5044371;28;20026;-72
2022/05/22 00:45:00;;;;;;;2.28;0.20;;;23.00;99.90;;;;;;5049010;28;20401;-74
2022/05/22 00:47:27;;;;;;;0.63;0.10;;;22.70;99.90;;;;;;5037975;28;20498;-73
2022/05/22 00:50:00;;;;;;;1.10;0.20;;;22.50;99.90;;;;;;5040469;28;20052;-73
2022/05/22 00:52:27;;;;;;;2.53;0.25;;;22.20;99.90;;;;;;5031966;28;20160;-73
2022/05/22 00:55:10;;;;;;;3.42;0.20;;;21.90;99.90;;;;;;5038295;28;20037;-72
2022/05/22 00:57:47;;;;;;;0.50;0.20;;;21.80;99.90;;;;;;5037188;28;20032;-73
2022/05/22 01:00:19;;;;;;;0.85;0.22;;;21.50;99.90;;;;;;5042411;28;20476;-72
2022/05/22 01:05:35;;;;;;;0.75;0.20;;;20.80;99.90;;;;;;5035356;28;20094;-71
2022/05/22 01:08:04;;;;;;;2.15;0.88;;;20.60;99.90;;;;;;5050323;28;20104;-69
2022/05/22 01:10:47;;;;;;;0.52;0.22;;;20.40;99.90;;;;;;5049758;28;20494;-70
2022/05/22 01:13:18;;;;;;;2.10;0.40;;;20.30;99.90;;;;;;5031564;28;20128;-72
2022/05/22 01:15:46;;;;;;;1.90;0.47;;;20.00;99.90;;;;;;5040348;28;20417;-72
2022/05/22 01:18:13;;;;;;;3.25;0.63;;;19.90;99.90;;;;;;5032096;28;20033;-71
2022/05/22 01:20:50;;;;;;;3.55;0.85;;;19.70;99.90;;;;;;5045970;28;20025;-71
2022/05/22 01:23:18;;;;;;;2.60;0.50;;;19.70;99.90;;;;;;5036769;28;20117;-73
2022/05/22 01:25:46;;;;;;;2.65;0.73;;;19.70;99.90;;;;;;5032947;28;20037;-71
2022/05/22 01:28:16;;;;;;;1.55;0.30;;;19.70;99.90;;;;;;5046310;28;20033;-70
2022/05/22 01:30:43;;;;;;;2.45;0.45;;;19.80;99.90;;;;;;5047704;28;20031;-71
2022/05/22 01:33:11;;;;;;;0.90;0.30;;;19.70;99.90;;;;;;5045054;28;20116;-71
2022/05/22 01:35:38;;;;;;;2.58;0.30;;;19.80;99.90;;;;;;5034885;28;20040;-70
2022/05/22 01:38:06;;;;;;;0.52;0.20;;;19.80;99.90;;;;;;5046378;28;20025;-70
2022/05/22 01:40:34;;;;;;;4.97;1.50;;;19.80;99.90;;;;;;5038459;28;20547;-73
2022/05/22 01:43:01;;;;;;;7.85;0.57;;;20.00;99.90;;;;;;5048171;28;20033;-71
2022/05/22 01:45:29;;;;;;;0.95;0.22;;;20.00;99.90;;;;;;5049228;28;20039;-70
2022/05/22 01:47:57;;;;;;;0.70;0.35;;;19.90;99.90;;;;;;5039317;28;20439;-71
2022/05/22 01:50:25;;;;;;;1.23;0.40;;;19.80;99.90;;;;;;5039433;28;20061;-71
2022/05/22 01:52:53;;;;;;;2.20;1.17;;;19.70;99.90;;;;;;5044727;28;20033;-70
2022/05/22 01:55:21;;;;;;;3.22;0.30;;;19.70;99.90;;;;;;5042934;28;20044;-70
2022/05/22 01:57:48;;;;;;;2.28;0.20;;;19.80;99.90;;;;;;5041916;28;20060;-71
2022/05/22 02:00:19;;;;;;;2.25;0.28;;;19.80;99.90;;;;;;5035988;28;20029;-71
2022/05/22 02:02:48;;;;;;;1.02;0.20;;;19.90;99.90;;;;;;5036370;28;20060;-70
2022/05/22 02:05:16;;;;;;;3.42;0.30;;;19.80;99.90;;;;;;5042555;28;20042;-71
2022/05/22 02:10:31;;;;;;;0.80;0.20;;;19.80;99.90;;;;;;5044601;28;20039;-69
2022/05/22 02:12:59;;;;;;;1.20;0.20;;;19.80;99.90;;;;;;5054698;28;20041;-71
2022/05/22 02:15:27;;;;;;;1.15;0.65;;;19.70;99.90;;;;;;5050020;28;20103;-72
2022/05/22 02:17:55;;;;;;;0.70;0.20;;;19.60;99.90;;;;;;5052760;28;20476;-72
2022/05/22 02:20:23;;;;;;;1.85;0.10;;;19.50;99.90;;;;;;5050468;28;20025;-71
2022/05/22 02:22:53;;;;;;;1.15;0.17;;;19.40;99.90;;;;;;5053693;28;20025;-72
2022/05/22 02:25:24;;;;;;;3.03;0.30;;;19.40;99.90;;;;;;5041216;28;20040;-70
2022/05/22 02:27:51;;;;;;;0.95;0.25;;;19.40;99.90;;;;;;5033804;28;20036;-72
2022/05/22 02:30:23;;;;;;;2.30;0.20;;;19.40;99.90;;;;;;5044851;28;20064;-70
2022/05/22 02:32:50;;;;;;;1.25;0.30;;;19.60;99.90;;;;;;5052657;28;20037;-69
2022/05/22 02:35:18;;;;;;;0.40;0.10;;;19.60;99.90;;;;;;5047479;28;20040;-70
2022/05/22 02:37:48;;;;;;;0.55;0.13;;;19.60;99.90;;;;;;5035426;28;20057;-70
2022/05/22 02:40:18;;;;;;;3.50;0.40;;;19.60;99.90;;;;;;5041427;28;20028;-72
2022/05/22 02:42:48;;;;;;;0.80;0.10;;;19.50;99.90;;;;;;5039137;28;20032;-71
2022/05/22 02:45:18;;;;;;;2.22;0.20;;;19.30;99.90;;;;;;5034402;28;20032;-69
2022/05/22 02:47:46;;;;;;;2.47;0.40;;;19.30;99.90;;;;;;5033487;28;20473;-71
2022/05/22 02:50:15;;;;;;;2.40;0.30;;;19.20;99.90;;;;;;5048879;28;20031;-71
2022/05/22 02:52:43;;;;;;;2.67;0.85;;;19.10;99.90;;;;;;5050404;28;20119;-74
2022/05/22 02:55:10;;;;;;;5.40;0.45;;;19.00;99.90;;;;;;5050702;28;20040;-72
2022/05/22 02:57:40;;;;;;;2.38;0.43;;;19.00;99.90;;;;;;5046974;28;20036;-72
2022/05/22 03:00:18;;;;;;;1.83;0.43;;;19.00;99.90;;;;;;5039176;28;20028;-72
2022/05/22 03:02:46;;;;;;;3.30;0.63;;;18.90;99.90;;;;;;5036599;28;20026;-69
2022/05/22 03:05:14;;;;;;;4.18;0.60;;;18.80;99.90;;;;;;5035825;28;20083;-72
2022/05/22 03:07:41;;;;;;;5.28;0.32;;;18.80;99.90;;;;;;5038238;28;20021;-70
2022/05/22 03:10:11;;;;;;;1.45;0.52;;;18.80;99.90;;;;;;5050414;28;20124;-71
2022/05/22 03:12:38;;;;;;;8.98;0.68;;;18.80;99.90;;;;;;5050829;28;20444;-71
2022/05/22 03:15:08;;;;;;;2.03;0.40;;;18.70;99.90;;;;;;5051964;28;20067;-71
2022/05/22 03:17:36;;;;;;;3.22;0.70;;;18.60;99.90;;;;;;5048766;28;20036;-71
2022/05/22 03:20:04;;;;;;;1.58;0.25;;;18.60;99.90;;;;;;5042003;28;20043;-71
2022/05/22 03:22:31;;;;;;;2.92;0.80;;;18.60;99.90;;;;;;5047467;28;20024;-71
2022/05/22 03:24:59;;;;;;;0.68;0.25;;;18.60;99.90;;;;;;5040111;28;20029;-70
2022/05/22 03:27:26;;;;;;;1.70;0.35;;;18.60;99.90;;;;;;5051482;28;20078;-71
2022/05/22 03:29:53;;;;;;;1.73;0.45;;;18.60;99.90;;;;;;5036975;28;20116;-73
2022/05/22 03:32:21;;;;;;;0.52;0.20;;;18.50;99.90;;;;;;5045213;28;20108;-73
2022/05/22 03:34:48;;;;;;;6.85;1.70;;;18.50;99.90;;;;;;5041734;28;20064;-72
2022/05/22 03:37:16;;;;;;;6.20;2.45;;;18.50;99.90;;;;;;5046952;28;20033;-73
2022/05/22 03:39:43;;;;;;;4.28;2.42;;;18.50;99.90;;;;;;5040344;28;20079;-73
2022/05/22 03:42:11;;;;;;;6.07;2.50;;;18.50;99.90;;;;;;5046305;28;20392;-73
2022/05/22 03:44:39;;;;;;;5.75;2.58;;;18.50;99.90;;;;;;5037031;28;20025;-74
2022/05/22 03:47:07;;;;;;;11.27;4.78;;;18.50;99.90;;;;;;5052531;28;20025;-70
2022/05/22 03:49:34;;;;;;;12.02;6.65;;;18.60;99.90;;;;;;5040425;28;20059;-71
2022/05/22 03:52:02;;;;;;;13.95;7.43;;;18.60;99.90;;;;;;5041143;28;20021;-74
2022/05/22 03:54:29;;;;;;;7.85;3.92;;;18.60;99.90;;;;;;5035862;28;20056;-71
2022/05/22 03:56:57;;;;;;;4.13;1.17;;;18.70;99.90;;;;;;5037607;28;20033;-73
2022/05/22 03:59:25;;;;;;;1.65;0.90;;;18.70;99.90;;;;;;5041686;28;20053;-72
2022/05/22 04:01:53;;;;;;;1.58;0.57;;;18.70;99.90;;;;;;5049026;28;20028;-71
2022/05/22 04:04:20;;;;;;;2.38;0.63;;;18.80;99.90;;;;;;5040072;28;20480;-72
2022/05/22 04:06:48;;;;;;;1.20;0.47;;;18.80;99.90;;;;;;5043210;28;20053;-73
2022/05/22 04:09:15;;;;;;;1.30;0.35;;;18.70;99.90;;;;;;5033970;28;20053;-73
2022/05/22 04:11:42;;;;;;;3.85;0.75;;;18.80;99.90;;;;;;5052141;28;20032;-73
2022/05/22 04:14:10;;;;;;;2.90;0.40;;;18.80;99.90;;;;;;5039757;28;20037;-70
2022/05/22 04:16:37;;;;;;;2.17;0.65;;;18.80;99.90;;;;;;5049575;28;20065;-71
2022/05/22 04:19:05;;;;;;;3.05;0.50;;;18.70;99.90;;;;;;5049238;28;20032;-72
2022/05/22 04:21:32;;;;;;;2.45;0.50;;;18.70;99.90;;;;;;5051404;28;20021;-73
2022/05/22 04:26:45;;;;;;;1.08;0.20;;;18.50;99.90;;;;;;5038827;28;20032;-74
2022/05/22 04:29:12;;;;;;;1.30;0.90;;;18.50;99.90;;;;;;5040064;28;20061;-73
2022/05/22 04:31:39;;;;;;;5.35;0.77;;;18.50;99.90;;;;;;5047297;28;20037;-74
2022/05/22 04:34:07;;;;;;;3.53;0.45;;;18.40;99.90;;;;;;5032507;28;20045;-72
2022/05/22 04:36:34;;;;;;;5.68;0.88;;;18.50;99.90;;;;;;5033499;28;20461;-72
2022/05/22 04:39:01;;;;;;;1.05;0.35;;;18.50;99.90;;;;;;5031729;28;20082;-72
2022/05/22 04:41:29;;;;;;;2.83;0.43;;;18.50;99.90;;;;;;5032290;28;20499;-72
2022/05/22 04:43:56;;;;;;;1.08;0.38;;;18.40;99.90;;;;;;5031084;28;20541;-72
2022/05/22 04:46:23;;;;;;;1.50;0.60;;;18.40;99.90;;;;;;5033222;28;20171;-73
2022/05/22 04:48:51;;;;;;;1.92;0.30;;;18.40;99.90;;;;;;5036337;28;20061;-72
2022/05/22 04:51:19;;;;;;;1.65;0.35;;;18.40;99.90;;;;;;5048798;28;20052;-73
2022/05/22 04:53:46;;;;;;;0.85;0.22;;;18.30;99.90;;;;;;5044846;28;20407;-72
2022/05/22 04:56:13;;;;;;;3.70;0.25;;;18.30;99.90;;;;;;5038952;28;20361;-73
2022/05/22 04:58:41;;;;;;;4.25;1.15;;;18.30;99.90;;;;;;5036451;28;20028;-73
2022/05/22 05:01:10;;;;;;;2.67;0.50;;;18.20;99.90;;;;;;5031583;28;20032;-74
2022/05/22 05:03:37;;;;;;;2.05;0.43;;;18.20;99.90;;;;;;5029965;28;20533;-75
2022/05/22 05:06:05;;;;;;;0.82;0.50;;;18.10;99.90;;;;;;5032951;28;20029;-73
2022/05/22 05:08:33;;;;;;;1.70;0.35;;;18.10;99.90;;;;;;5034059;28;20029;-73
2022/05/22 05:11:01;;;;;;;0.60;0.20;;;18.10;99.90;;;;;;5031627;28;20041;-72
2022/05/22 05:13:29;;;;;;;2.63;0.47;;;18.10;99.90;;;;;;5038212;28;20040;-72
2022/05/22 05:16:07;;;;;;;2.75;0.20;;;18.10;99.90;;;;;;5041634;28;20021;-73
2022/05/22 05:18:36;;;;;;;4.53;0.60;;;18.10;99.90;;;;;;5039827;28;20038;-73
2022/05/22 05:21:09;;;;;;;2.88;0.40;;;18.00;99.90;;;;;;5036609;28;20029;-71
2022/05/22 05:23:37;;;;;;;6.97;0.77;;;17.90;99.90;;;;;;5041083;28;20029;-74
2022/05/22 05:26:05;;;;;;;1.92;0.40;;;17.90;99.90;;;;;;5046577;28;20116;-75
2022/05/22 05:28:33;;;;;;;1.55;0.28;;;17.90;99.90;;;;;;5040958;28;20476;-74
2022/05/22 05:31:01;;;;;;;0.88;0.25;;;17.90;99.90;;;;;;5032653;28;20368;-75
2022/05/22 05:33:30;;;;;;;1.08;0.30;;;17.90;99.90;;;;;;5033950;28;20438;-74
2022/05/22 05:35:58;;;;;;;3.35;0.55;;;17.80;99.90;;;;;;5030268;28;20021;-72
2022/05/22 05:38:25;;;;;;;0.88;0.30;;;17.90;99.90;;;;;;5037353;28;20036;-75
2022/05/22 05:40:52;;;;;;;1.00;0.95;;;17.90;99.90;;;;;;5029838;28;20026;-71
2022/05/22 05:43:20;;;;;;;2.58;0.90;;;17.90;99.90;;;;;;5032651;28;20045;-73
2022/05/22 05:45:47;;;;;;;3.25;1.10;;;17.90;99.90;;;;;;5027033;28;20095;-74
2022/05/22 05:48:14;;;;;;;1.30;0.60;;;17.90;99.90;;;;;;5035391;28;20519;-75
2022/05/22 05:50:42;;;;;;;2.20;0.30;;;17.80;99.90;;;;;;5037309;28;20112;-74
2022/05/22 05:53:10;;;;;;;0.85;0.30;;;17.80;99.90;;;;;;5030370;28;20034;-74
2022/05/22 05:55:37;;;;;;;0.55;0.30;;;17.70;99.90;;;;;;5047845;28;20075;-74
2022/05/22 05:58:05;;;;;;;4.68;0.85;;;17.70;99.90;;;;;;5051073;28;20022;-72
2022/05/22 06:00:32;;;;;;;2.13;0.22;;;17.70;99.90;;;;;;5049139;28;20029;-72
2022/05/22 06:03:00;;;;;;;0.95;0.50;;;17.60;99.90;;;;;;5038640;28;20380;-72
2022/05/22 06:05:27;;;;;;;3.45;0.50;;;17.60;99.90;;;;;;5043520;28;20032;-73
2022/05/22 06:07:55;;;;;;;5.80;0.60;;;17.60;99.90;;;;;;5050174;28;20051;-72
2022/05/22 06:10:22;;;;;;;2.05;0.77;;;17.50;99.90;;;;;;5048593;28;20078;-73
2022/05/22 06:12:50;;;;;;;1.83;0.28;;;17.50;99.90;;;;;;5041739;28;20064;-73
2022/05/22 06:15:17;;;;;;;2.03;0.30;;;17.50;99.90;;;;;;5035173;28;20025;-72
2022/05/22 06:17:46;;;;;;;1.10;0.30;;;17.40;99.90;;;;;;5034744;28;20128;-75
2022/05/22 06:20:17;;;;;;;2.42;0.40;;;17.40;99.90;;;;;;5028271;28;20021;-72
2022/05/22 06:22:45;;;;;;;0.88;0.55;;;17.30;99.90;;;;;;5033837;28;20021;-73
2022/05/22 06:25:15;;;;;;;0.70;0.32;;;17.30;99.90;;;;;;5033688;28;20042;-72
2022/05/22 06:27:43;;;;;;;0.90;0.38;;;17.20;99.90;;;;;;5046849;28;20037;-73
2022/05/22 06:30:13;;;;;;;1.73;0.35;;;17.20;99.90;;;;;;5039988;28;20044;-72
2022/05/22 06:32:42;;;;;;;1.05;0.30;;;17.20;99.90;;;;;;5036517;28;20594;-72
2022/05/22 06:35:12;;;;;;;2.70;0.40;;;17.10;99.90;;;;;;5031723;28;20454;-72
2022/05/22 06:37:39;;;;;;;0.90;0.20;;;17.10;99.90;;;;;;5031648;28;20559;-72
2022/05/22 06:40:08;;;;;;;0.63;0.20;;;17.00;99.90;;;;;;5039470;28;20083;-71
2022/05/22 06:42:42;;;;;;;2.35;0.38;;;17.10;99.90;;;;;;5040704;28;20029;-74
2022/05/22 06:45:14;;;;;;;1.15;0.38;;;17.00;99.90;;;;;;5036505;28;20030;-73
2022/05/22 06:47:43;;;;;;;1.85;0.20;;;17.00;99.90;;;;;;5034992;28;20101;-72
2022/05/22 06:50:19;;;;;;;4.18;0.40;;;16.90;99.90;;;;;;5050456;28;20033;-72
2022/05/22 06:52:47;;;;;;;1.45;0.55;;;16.90;99.90;;;;;;5046715;28;20037;-72
2022/05/22 06:55:15;;;;;;;3.40;0.38;;;16.80;99.90;;;;;;5041588;28;20052;-72
2022/05/22 06:57:43;;;;;;;1.55;0.25;;;16.80;99.90;;;;;;5038372;28;20021;-72
2022/05/22 07:00:14;;;;;;;0.82;0.50;;;16.70;99.90;;;;;;5047736;28;20068;-72
2022/05/22 07:02:43;;;;;;;4.75;0.65;;;16.70;99.90;;;;;;5048800;28;20041;-74
2022/05/22 07:05:12;;;;;;;0.90;0.30;;;16.60;99.90;;;;;;5038939;28;20128;-73
2022/05/22 07:07:40;;;;;;;0.85;0.30;;;16.60;99.90;;;;;;5033883;28;20387;-72
2022/05/22 07:10:07;;;;;;;1.42;0.50;;;16.50;99.90;;;;;;5040946;28;20068;-74
2022/05/22 07:12:35;;;;;;;1.25;0.40;;;16.40;99.90;;;;;;5033689;28;20022;-73
2022/05/22 07:15:03;;;;;;;0.80;0.20;;;16.40;99.90;;;;;;5039874;28;20040;-73
2022/05/22 07:17:32;;;;;;;1.05;0.30;;;16.30;99.90;;;;;;5050213;28;20360;-72
2022/05/22 07:19:59;;;;;;;1.13;0.40;;;16.30;99.90;;;;;;5051255;28;20033;-73
2022/05/22 07:22:26;;;;;;;1.85;0.40;;;16.30;99.90;;;;;;5036145;28;20022;-74
2022/05/22 07:24:54;;;;;;;0.75;0.40;;;16.20;99.90;;;;;;5038172;28;20030;-74
2022/05/22 07:27:22;;;;;;;0.95;0.40;;;16.20;99.90;;;;;;5041293;28;20030;-73
2022/05/22 07:29:49;;;;;;;0.55;0.52;;;16.10;99.90;;;;;;5038149;28;20403;-73
2022/05/22 07:32:16;;;;;;;1.67;0.22;;;16.20;99.90;;;;;;5049138;28;20028;-74
2022/05/22 07:34:47;;;;;;;1.02;0.30;;;16.10;99.90;;;;;;5037816;28;20041;-73
2022/05/22 07:37:14;;;;;;;1.20;0.68;;;16.00;99.90;;;;;;5052371;28;20017;-73
2022/05/22 07:39:41;;;;;;;1.02;0.45;;;16.00;99.90;;;;;;5048859;28;20055;-74
2022/05/22 07:42:09;;;;;;;1.05;0.60;;;16.00;99.90;;;;;;5045904;28;20364;-74
2022/05/22 07:44:37;;;;;;;0.95;0.40;;;15.90;99.90;;;;;;5042583;28;20021;-74
2022/05/22 07:47:05;;;;;;;0.50;0.30;;;15.90;99.90;;;;;;5053129;28;20425;-74
2022/05/22 07:52:17;;;;;;;0.50;0.30;;;15.90;99.90;;;;;;5042893;28;20032;-75
2022/05/22 07:54:45;;;;;;;0.50;0.30;;;15.80;99.90;;;;;;5050665;28;20033;-76
2022/05/22 07:57:13;;;;;;;1.27;0.20;;;15.80;99.90;;;;;;5052525;28;20029;-74
2022/05/22 07:59:41;;;;;;;0.60;0.25;;;15.70;99.90;;;;;;5050244;28;20086;-75
2022/05/22 08:02:13;;;;;;;0.80;0.57;;;15.70;99.90;;;;;;5042407;28;20026;-74
2022/05/22 08:04:42;;;;;;;0.70;0.60;;;15.80;99.90;;;;;;5032215;28;20033;-75
2022/05/22 08:07:10;;;;;;;0.20;0.20;;;15.70;99.90;;;;;;5033626;28;20055;-73
2022/05/22 08:09:37;;;;;;;3.08;0.32;;;15.70;99.90;;;;;;5041726;28;20037;-73
2022/05/22 08:12:06;;;;;;;1.08;0.30;;;15.70;99.90;;;;;;5047295;28;20040;-73
2022/05/22 08:14:33;;;;;;;0.40;0.20;;;15.60;99.90;;;;;;5040811;28;20038;-74
2022/05/22 08:17:00;;;;;;;2.08;0.63;;;15.60;99.90;;;;;;5048928;28;20029;-74
2022/05/22 08:19:28;;;;;;;0.20;0.10;;;15.60;99.90;;;;;;5049647;28;20032;-72
2022/05/22 08:21:55;;;;;;;2.55;0.30;;;15.50;99.90;;;;;;5049103;28;20044;-73
2022/05/22 08:24:22;;;;;;;1.13;0.20;;;15.50;99.90;;;;;;5035883;28;20467;-73
2022/05/22 08:26:51;;;;;;;1.40;0.50;;;15.50;99.90;;;;;;5049644;28;20037;-74
2022/05/22 08:29:18;;;;;;;1.02;0.45;;;15.50;99.90;;;;;;5038027;28;20083;-73
2022/05/22 08:31:46;;;;;;;1.67;0.70;;;15.50;99.90;;;;;;5047414;28;20037;-74
2022/05/22 08:34:14;;;;;;;1.05;0.32;;;15.50;99.90;;;;;;5039889;28;20040;-73
2022/05/22 08:36:42;;;;;;;0.90;0.55;;;15.50;99.90;;;;;;5031948;28;20037;-73
2022/05/22 08:39:09;;;;;;;0.68;0.28;;;15.40;99.90;;;;;;5032922;28;20148;-72
2022/05/22 08:41:53;;;;;;;2.25;0.50;;;15.40;99.90;;;;;;5041844;28;20025;-73
2022/05/22 08:44:25;;;;;;;0.63;0.35;;;15.40;99.90;;;;;;5035218;28;20117;-72
2022/05/22 08:47:11;;;;;;;0.63;0.45;;;15.30;99.90;;;;;;5040320;28;20463;-73
2022/05/22 08:49:49;;;;;;;3.35;0.93;;;15.30;99.90;;;;;;5038719;28;20048;-75
2022/05/22 08:52:30;;;;;;;1.30;0.40;;;15.30;99.90;;;;;;5041004;28;20037;-75
2022/05/22 08:55:18;;;;;;;1.67;0.50;;;15.30;99.90;;;;;;5039857;28;20106;-78
2022/05/22 09:01:17;;;;;;;1.02;0.38;;;15.20;99.90;;;;;;5034765;28;20426;-76
2022/05/22 09:04:11;;;;;;;1.38;0.70;;;15.20;99.90;;;;;;5039902;28;20064;-73
2022/05/22 09:06:49;;;;;;;2.40;0.60;;;15.20;99.90;;;;;;5030511;28;20044;-73
2022/05/22 09:09:16;;;;;;;1.08;0.45;;;15.20;99.90;;;;;;5032367;28;20433;-75
2022/05/22 09:12:16;;;;;;;1.13;0.50;;;15.20;99.90;;;;;;5035358;28;20037;-76
2022/05/22 09:14:53;;;;;;;0.68;0.40;;;15.20;99.90;;;;;;5029331;28;20052;-73
2022/05/22 09:17:33;;;;;;;1.95;0.57;;;15.20;99.90;;;;;;5048468;28;20036;-77
2022/05/22 09:20:10;;;;;;;1.30;0.40;;;15.20;99.90;;;;;;5035594;28;20029;-75
2022/05/22 09:23:05;;;;;;;0.77;0.50;;;15.20;99.90;;;;;;5031867;28;20029;-74
2022/05/22 09:25:54;;;;;;;1.95;0.73;;;15.20;99.90;;;;;;5043151;28;20033;-73
2022/05/22 09:28:44;;;;;;;1.90;0.70;;;15.30;99.90;;;;;;5039430;28;20029;-73
2022/05/22 09:31:47;;;;;;;1.85;0.85;;;15.20;99.90;;;;;;5046678;28;20103;-75
2022/05/22 09:34:31;;;;;;;0.88;0.50;;;15.30;99.90;;;;;;5030514;28;20522;-75
2022/05/22 09:37:35;;;;;;;2.70;0.60;;;15.30;99.90;;;;;;5034470;28;20045;-75
2022/05/22 09:40:38;;;;;;;1.10;0.57;;;15.30;99.90;;;;;;5036950;28;20036;-75
2022/05/22 09:43:36;;;;;;;2.03;1.17;;;15.20;99.90;;;;;;5037036;28;20099;-77
2022/05/22 09:46:13;;;;;;;1.88;0.50;;;15.10;99.90;;;;;;5029047;28;20458;-75
2022/05/22 09:48:58;;;;;;;1.63;0.45;;;15.10;99.90;;;;;;5029358;28;20049;-75
2022/05/22 09:52:01;;;;;;;0.70;0.43;;;15.10;99.90;;;;;;5039552;28;20127;-74
2022/05/22 09:55:14;;;;;;;1.30;0.60;;;15.10;99.90;;;;;;5027598;28;20101;-74
2022/05/22 09:58:03;;;;;;;2.28;0.57;;;15.10;99.90;;;;;;5013685;28;20532;-75
2022/05/22 10:00:47;;;;;;;0.90;0.45;;;15.00;99.90;;;;;;5025557;28;20078;-75
2022/05/22 10:03:48;;;;;;;1.70;0.68;;;15.00;99.90;;;;;;5037736;28;20028;-74
2022/05/22 10:06:35;;;;;;;2.83;0.93;;;15.00;99.90;;;;;;5031243;28;20051;-75
2022/05/22 10:09:22;;;;;;;2.30;0.70;;;15.00;99.90;;;;;;5041258;28;20061;-74
2022/05/22 10:12:14;;;;;;;1.58;0.85;;;15.00;99.90;;;;;;5048371;28;20115;-73
2022/05/22 10:14:53;;;;;;;0.85;0.55;;;15.00;99.90;;;;;;5045229;28;20047;-74
2022/05/22 10:17:26;;;;;;;1.23;0.68;;;15.00;99.90;;;;;;5030602;28;20030;-75
2022/05/22 10:20:13;;;;;;;0.80;0.45;;;15.00;99.90;;;;;;5037341;28;20033;-74
2022/05/22 10:23:02;;;;;;;3.17;0.65;;;15.00;99.90;;;;;;5052974;28;20033;-73
2022/05/22 10:25:55;;;;;;;1.73;0.73;;;15.00;99.90;;;;;;5037825;28;20048;-73
2022/05/22 10:28:36;;;;;;;3.67;1.00;;;14.90;99.90;;;;;;5050056;28;20551;-76
2022/05/22 10:31:21;;;;;;;4.00;2.22;;;15.00;99.90;;;;;;5050375;28;20045;-75
2022/05/22 10:34:25;;;;;;;5.03;2.38;;;15.00;99.90;;;;;;5054093;28;20522;-75
2022/05/22 10:36:57;;;;;;;2.75;2.13;;;14.90;99.90;;;;;;5047787;28;20040;-75
2022/05/22 10:39:24;;;;;;;4.95;2.33;;;14.90;99.90;;;;;;5051364;28;20033;-76
2022/05/22 10:44:45;;;;;;;2.38;1.25;;;14.90;99.90;;;;;;5043750;28;20036;-75
2022/05/22 10:47:13;;;;;;;3.13;1.05;;;14.90;99.90;;;;;;5035601;28;20503;-73
2022/05/22 10:49:45;;;;;;;1.30;0.73;;;15.00;99.90;;;;;;5047987;28;20284;-73
2022/05/22 10:52:24;;;;;;;2.95;1.38;;;14.90;99.90;;;;;;5053731;28;20045;-73
2022/05/22 10:54:54;;;;;;;1.38;0.88;;;15.00;99.90;;;;;;5040324;28;20116;-73
2022/05/22 10:57:26;;;;;;;1.70;1.00;;;15.00;99.90;;;;;;5040813;28;20032;-73
2022/05/22 10:59:54;;;;;;;2.60;1.27;;;15.00;99.90;;;;;;5042025;28;20053;-73
2022/05/22 11:02:31;;;;;;;3.22;1.50;;;15.00;99.90;;;;;;5045356;28;20029;-72
2022/05/22 11:04:59;;;;;;;4.18;1.15;;;15.00;99.90;;;;;;5038083;28;20053;-74
2022/05/22 11:07:45;;;;;;;3.45;1.42;;;15.00;99.90;;;;;;5046912;28;20025;-73
2022/05/22 11:10:35;;;;;;;3.65;2.55;;;15.00;99.90;;;;;;5048019;28;20475;-73
2022/05/22 11:13:10;;;;;;;2.97;2.28;;;15.00;99.90;;;;;;5033005;28;20547;-74
2022/05/22 11:15:42;;;;;;;2.83;2.28;;;15.00;99.90;;;;;;5037263;28;20037;-73
2022/05/22 11:18:20;;;;;;;4.03;2.25;;;15.00;99.90;;;;;;5037285;28;20037;-73
2022/05/22 11:21:09;;;;;;;3.83;2.67;;;14.90;99.90;;;;;;5033867;28;20065;-73
2022/05/22 11:23:39;;;;;;;5.10;2.85;;;14.90;99.90;;;;;;5038029;28;20380;-74
2022/05/22 11:26:47;;;;;;;2.95;1.90;;;14.90;99.90;;;;;;5041206;28;20025;-74
2022/05/22 11:29:29;;;;;;;3.90;1.33;;;14.80;99.90;;;;;;5050012;28;20035;-73
2022/05/22 11:32:15;;;;;;;2.42;1.23;;;14.70;99.90;;;;;;5035970;28;20111;-74
2022/05/22 11:35:07;;;;;;;1.30;0.88;;;14.70;99.90;;;;;;5032956;28;20059;-75
2022/05/22 11:38:07;;;;;;;2.78;0.77;;;14.70;99.90;;;;;;5046275;28;20033;-76
2022/05/22 11:40:49;;;;;;;1.55;0.60;;;14.70;99.90;;;;;;5032954;28;20033;-74
2022/05/22 11:43:25;;;;;;;2.35;0.60;;;14.70;99.90;;;;;;5035612;28;20051;-74
2022/05/22 11:46:06;;;;;;;0.88;0.50;;;14.60;99.90;;;;;;5037275;28;20041;-75
2022/05/22 11:49:08;;;;;;;1.95;0.50;;;14.60;99.90;;;;;;5042749;28;20050;-75
2022/05/22 11:52:53;;;;;;;1.35;0.35;;;14.60;99.90;;;;;;5026548;28;20033;-74
2022/05/22 11:55:32;;;;;;;1.13;0.30;;;14.50;99.90;;;;;;5045653;28;20037;-73
2022/05/22 11:58:11;;;;;;;0.88;0.60;;;14.50;99.90;;;;;;5039285;28;20031;-73
2022/05/22 12:00:57;;;;;;;2.38;0.45;;;14.40;99.90;;;;;;5034045;28;20396;-75
2022/05/22 12:03:36;;;;;;;;;;;14.40;99.90;;;;;;5041278;28;20448;-75
2022/05/22 12:06:30;;;;;;;2.15;0.40;;;14.30;99.90;;;;;;5064098;28;20023;-76
2022/05/22 12:09:17;;;;;;;3.20;0.60;;;14.30;99.90;;;;;;5037200;28;20047;-77
2022/05/22 12:12:00;;;;;;;0.75;0.50;;;14.30;99.90;;;;;;5040759;28;20108;-76
2022/05/22 12:15:01;;;;;;;2.97;0.85;;;14.20;99.90;;;;;;5052294;28;20115;-77
2022/05/22 12:17:58;;;;;;;3.58;0.50;;;14.20;99.90;;;;;;5034776;28;20108;-76
2022/05/22 12:20:51;;;;;;;0.63;0.40;;;14.10;99.90;;;;;;5034217;28;20041;-76
2022/05/22 12:23:38;;;;;;;0.90;0.70;;;14.10;99.90;;;;;;5046316;28;20524;-75
2022/05/22 12:26:07;;;;;;;2.33;0.82;;;14.10;99.90;;;;;;5033543;28;20483;-76
2022/05/22 12:28:49;;;;;;;1.50;0.40;;;14.00;99.90;;;;;;5038919;28;20025;-76
2022/05/22 12:31:23;;;;;;;0.80;0.40;;;14.00;99.90;;;;;;5031395;28;20029;-76
2022/05/22 12:33:53;;;;;;;0.57;0.30;;;14.00;99.90;;;;;;5031122;28;20056;-76
2022/05/22 12:36:26;;;;;;;5.10;0.50;;;14.00;99.90;;;;;;5036066;28;20040;-77
2022/05/22 12:39:03;;;;;;;2.15;0.40;;;13.90;99.90;;;;;;5034027;28;20017;-77
2022/05/22 12:41:52;;;;;;;1.27;0.40;;;13.90;99.90;;;;;;5033615;28;20029;-75
2022/05/22 12:44:20;;;;;;;0.77;0.50;;;13.80;99.90;;;;;;5043633;28;20528;-77
2022/05/22 12:46:50;;;;;;;0.90;0.30;;;13.80;99.90;;;;;;5034224;28;20026;-74
2022/05/22 12:49:26;;;;;;;2.38;0.45;;;13.80;99.90;;;;;;5037657;28;20060;-74
2022/05/22 12:52:14;;;;;;;0.73;0.38;;;13.70;99.90;;;;;;5033192;28;20033;-74
2022/05/22 12:54:41;;;;;;;0.45;0.32;;;13.70;99.90;;;;;;5037753;28;20061;-74
2022/05/22 12:57:14;;;;;;;1.20;0.40;;;13.60;99.90;;;;;;5041864;28;20036;-77
2022/05/22 12:59:58;;;;;;;0.93;0.50;;;13.60;99.90;;;;;;5044166;28;20061;-76
2022/05/22 13:02:38;;;;;;;1.27;0.28;;;13.50;99.90;;;;;;5038222;28;20026;-77
2022/05/22 13:05:26;;;;;;;1.13;0.50;;;13.40;99.90;;;;;;5036151;28;20443;-75
2022/05/22 13:07:54;;;;;;;0.95;0.30;;;13.40;99.90;;;;;;5031346;28;20029;-77
2022/05/22 13:10:49;;;;;;;0.88;0.40;;;13.30;99.90;;;;;;5035650;28;20018;-78
2022/05/22 13:13:26;;;;;;;0.70;0.30;;;13.20;99.90;;;;;;5045909;28;20088;-80
2022/05/22 13:16:04;;;;;;;1.52;0.50;;;13.20;99.90;;;;;;5034938;28;20016;-80
2022/05/22 13:18:32;;;;;;;4.07;1.17;;;13.20;99.90;;;;;;5029714;28;20502;-77
2022/05/22 13:21:02;;;;;;;2.72;1.23;;;13.10;99.90;;;;;;5048410;28;20032;-79
2022/05/22 13:23:36;;;;;;;2.40;0.45;;;13.10;99.90;;;;;;5050941;28;20021;-80
2022/05/22 13:26:27;;;;;;;0.75;0.35;;;13.10;99.90;;;;;;5034798;28;20026;-77
2022/05/22 13:29:16;;;;;;;1.20;0.68;;;13.00;99.90;;;;;;5038357;28;20024;-77
2022/05/22 13:31:49;;;;;;;5.05;1.20;;;13.00;99.90;;;;;;5045219;28;20039;-77
2022/05/22 13:34:20;;;;;;;3.42;0.50;;;13.00;99.90;;;;;;5050275;28;20147;-76
2022/05/22 13:37:08;;;;;;;2.35;0.65;;;13.00;99.90;;;;;;5049794;28;20104;-76